createdAt,value
2022-08-11T00:01:20.183Z,5.53
2022-08-11T00:03:54.343Z,5.60
2022-08-11T00:06:31.101Z,4.37
2022-08-11T00:08:59.242Z,4.93
2022-08-11T00:11:41.153Z,7.93
2022-08-11T00:14:37.827Z,4.17
2022-08-11T00:17:16.064Z,5.90
2022-08-11T00:20:12.374Z,6.63
2022-08-11T00:22:38.218Z,4.57
2022-08-11T00:25:14.225Z,5.73
2022-08-11T00:27:41.864Z,3.73
2022-08-11T00:30:10.540Z,5.77
2022-08-11T00:32:43.731Z,5.53
2022-08-11T00:35:55.216Z,3.77
2022-08-11T00:38:04.661Z,4.77
2022-08-11T00:40:42.045Z,6.20
2022-08-11T00:43:22.449Z,5.93
2022-08-11T00:46:16.299Z,5.73
2022-08-11T00:49:02.409Z,5.17
2022-08-11T00:52:04.759Z,5.60
2022-08-11T00:54:50.379Z,4.43
2022-08-11T00:57:44.768Z,6.23
2022-08-11T01:00:13.415Z,5.53
2022-08-11T01:02:59.431Z,5.00
2022-08-11T01:05:51.756Z,6.13
2022-08-11T01:08:52.486Z,4.83
2022-08-11T01:11:56.054Z,4.67
2022-08-11T01:14:34.011Z,5.17
2022-08-11T01:17:29.001Z,5.20
2022-08-11T01:20:46.843Z,4.43
2022-08-11T01:23:49.485Z,6.13
2022-08-11T01:26:44.054Z,6.07
2022-08-11T01:29:33.944Z,7.13
2022-08-11T01:32:33.601Z,4.00
2022-08-11T01:35:15.023Z,7.07
2022-08-11T01:38:09.509Z,7.27
2022-08-11T01:41:04.540Z,5.63
2022-08-11T01:44:30.906Z,5.13
2022-08-11T01:47:35.199Z,4.70
2022-08-11T01:50:33.082Z,7.43
2022-08-11T01:53:24.013Z,4.80
2022-08-11T01:55:58.001Z,5.87
2022-08-11T01:58:47.604Z,6.37
2022-08-11T02:01:20.337Z,7.43
2022-08-11T02:03:58.971Z,5.80
2022-08-11T02:06:56.670Z,5.07
2022-08-11T02:09:40.003Z,5.20
2022-08-11T02:12:26.596Z,5.00
2022-08-11T02:15:15.103Z,7.13
2022-08-11T02:18:03.425Z,5.10
2022-08-11T02:20:59.563Z,5.43
2022-08-11T02:24:04.303Z,5.80
2022-08-11T02:26:33.974Z,4.70
2022-08-11T02:29:18.806Z,5.23
2022-08-11T02:32:33.774Z,5.33
2022-08-11T02:35:36.779Z,9.50
2022-08-11T02:38:17.098Z,6.23
2022-08-11T02:40:58.833Z,7.33
2022-08-11T02:43:52.961Z,8.10
2022-08-11T02:46:47.203Z,7.40
2022-08-11T02:50:02.642Z,6.43
2022-08-11T02:52:59.135Z,5.83
2022-08-11T02:55:47.940Z,7.27
2022-08-11T02:59:25.223Z,8.70
2022-08-11T03:02:16.450Z,6.73
2022-08-11T03:05:01.150Z,5.43
2022-08-11T03:07:40.738Z,6.70
2022-08-11T03:10:43.204Z,7.27
2022-08-11T03:13:40.808Z,7.03
2022-08-11T03:16:42.777Z,6.23
2022-08-11T03:19:18.446Z,7.30
2022-08-11T03:22:06.338Z,6.67
2022-08-11T03:24:48.403Z,8.00
2022-08-11T03:27:28.453Z,8.80
2022-08-11T03:30:10.237Z,6.17
2022-08-11T03:33:25.914Z,7.63
2022-08-11T03:36:18.307Z,6.03
2022-08-11T03:39:06.225Z,6.00
2022-08-11T03:42:04.273Z,7.70
2022-08-11T03:44:47.941Z,7.17
2022-08-11T03:47:33.377Z,5.93
2022-08-11T03:50:12.145Z,6.87
2022-08-11T03:53:08.670Z,6.20
2022-08-11T03:56:13.024Z,6.50
2022-08-11T03:58:46.600Z,6.27
2022-08-11T04:01:19.185Z,6.70
2022-08-11T04:04:14.372Z,6.63
2022-08-11T04:07:17.531Z,7.90
2022-08-11T04:10:02.668Z,6.97
2022-08-11T04:12:37.209Z,6.87
2022-08-11T04:15:56.246Z,8.90
2022-08-11T04:19:00.862Z,8.07
2022-08-11T04:21:27.365Z,6.70
2022-08-11T04:24:38.575Z,6.57
2022-08-11T04:27:24.377Z,6.60
2022-08-11T04:30:12.124Z,6.07
2022-08-11T04:33:17.095Z,8.33
2022-08-11T04:35:58.247Z,6.10
2022-08-11T04:38:59.138Z,5.83
2022-08-11T04:41:57.759Z,7.83
2022-08-11T04:44:52.033Z,5.70
2022-08-11T04:48:21.763Z,6.50
2022-08-11T04:51:27.316Z,5.83
2022-08-11T04:54:28.306Z,9.27
2022-08-11T04:57:22.081Z,7.47
2022-08-11T05:00:27.222Z,9.43
2022-08-11T05:03:31.167Z,7.90
2022-08-11T05:05:57.703Z,6.13
2022-08-11T05:08:49.915Z,6.63
2022-08-11T05:11:50.047Z,6.93
2022-08-11T05:15:00.514Z,7.47
2022-08-11T05:17:56.506Z,6.40
2022-08-11T05:20:45.393Z,6.37
2022-08-11T05:23:32.374Z,6.67
2022-08-11T05:26:47.541Z,8.43
2022-08-11T05:29:54.859Z,8.20
2022-08-11T05:32:42.505Z,6.00
2022-08-11T05:35:10.175Z,8.87
2022-08-11T05:38:05.723Z,7.53
2022-08-11T05:40:53.877Z,8.17
2022-08-11T05:44:21.487Z,6.17
2022-08-11T05:46:59.643Z,5.63
2022-08-11T05:49:50.727Z,7.60
2022-08-11T05:52:41.810Z,6.47
2022-08-11T05:55:29.081Z,9.63
2022-08-11T05:58:05.169Z,7.47
2022-08-11T06:00:41.179Z,7.53
2022-08-11T06:03:11.056Z,5.90
2022-08-11T06:05:43.636Z,6.33
2022-08-11T06:08:14.518Z,7.13
2022-08-11T06:10:43.923Z,6.33
2022-08-11T06:13:15.318Z,5.67
2022-08-11T06:15:50.825Z,7.83
2022-08-11T06:18:18.436Z,8.70
2022-08-11T06:20:49.874Z,8.10
2022-08-11T06:23:19.526Z,7.30
2022-08-11T06:25:47.121Z,7.60
2022-08-11T06:28:20.581Z,7.17
2022-08-11T06:30:49.017Z,7.30
2022-08-11T06:33:29.938Z,6.33
2022-08-11T06:36:12.005Z,8.33
2022-08-11T06:39:02.421Z,8.73
2022-08-11T06:42:04.139Z,8.63
2022-08-11T06:44:44.484Z,5.30
2022-08-11T06:47:18.125Z,10.53
2022-08-11T06:50:05.922Z,9.30
2022-08-11T06:52:39.087Z,8.77
2022-08-11T06:55:57.349Z,5.57
2022-08-11T06:58:49.805Z,5.27
2022-08-11T07:01:27.475Z,6.17
2022-08-11T07:04:05.493Z,8.67
2022-08-11T07:06:50.886Z,4.40
2022-08-11T07:10:15.198Z,6.57
2022-08-11T07:13:03.209Z,4.23
2022-08-11T07:16:09.007Z,5.03
2022-08-11T07:18:54.027Z,7.50
2022-08-11T07:22:02.481Z,5.37
2022-08-11T07:25:02.257Z,4.97
2022-08-11T07:27:55.928Z,8.40
2022-08-11T07:30:25.560Z,7.03
2022-08-11T07:32:55.784Z,5.13
2022-08-11T07:35:43.951Z,5.97
2022-08-11T07:38:22.748Z,5.43
2022-08-11T07:40:52.104Z,4.73
2022-08-11T07:43:18.880Z,6.50
2022-08-11T07:46:05.054Z,3.97
2022-08-11T07:48:52.818Z,5.60
2022-08-11T07:51:41.221Z,3.70
2022-08-11T07:54:16.198Z,6.73
2022-08-11T07:57:07.378Z,4.47
2022-08-11T08:00:00.622Z,5.23
2022-08-11T08:02:50.343Z,3.77
2022-08-11T08:05:37.565Z,5.33
2022-08-11T08:08:23.775Z,3.63
2022-08-11T08:11:09.580Z,6.37
2022-08-11T08:13:56.417Z,5.00
2022-08-11T08:16:42.034Z,5.10
2022-08-11T08:19:13.428Z,3.60
2022-08-11T08:21:40.602Z,4.03
2022-08-11T08:24:15.556Z,5.00
2022-08-11T08:27:00.866Z,3.37
2022-08-11T08:29:59.260Z,3.83
2022-08-11T08:32:29.873Z,4.90
2022-08-11T08:34:58.710Z,3.57
2022-08-11T08:37:46.773Z,3.30
2022-08-11T08:40:14.793Z,3.13
2022-08-11T08:42:58.600Z,8.13
2022-08-11T08:45:34.301Z,7.03
2022-08-11T08:48:12.479Z,3.57
2022-08-11T08:51:08.069Z,3.13
2022-08-11T08:53:39.189Z,5.43
2022-08-11T08:56:25.123Z,12.03
2022-08-11T08:58:51.897Z,5.03
2022-08-11T09:01:22.404Z,6.40
2022-08-11T09:04:04.957Z,6.33
2022-08-11T09:06:40.371Z,6.03
2022-08-11T09:09:09.000Z,5.13
2022-08-11T09:11:55.534Z,9.80
2022-08-11T09:14:50.633Z,5.20
2022-08-11T09:17:21.552Z,6.77
2022-08-11T09:19:49.596Z,5.87
2022-08-11T09:22:42.438Z,3.43
2022-08-11T09:25:28.377Z,4.30
2022-08-11T09:27:56.703Z,4.60
2022-08-11T09:30:26.018Z,2.63
2022-08-11T09:33:00.429Z,3.43
2022-08-11T09:35:34.528Z,2.37
2022-08-11T09:38:20.548Z,2.57
2022-08-11T09:40:52.717Z,2.13
2022-08-11T09:43:43.579Z,4.00
2022-08-11T09:46:10.977Z,3.03
2022-08-11T09:48:46.228Z,2.87
2022-08-11T09:51:14.475Z,2.27
2022-08-11T09:53:58.435Z,3.60
2022-08-11T09:56:49.746Z,3.27
2022-08-11T09:59:20.651Z,5.03
2022-08-11T10:01:50.540Z,2.13
2022-08-11T10:04:23.121Z,4.00
2022-08-11T10:07:06.765Z,2.07
2022-08-11T10:10:01.399Z,2.97
2022-08-11T10:12:34.151Z,2.63
2022-08-11T10:15:23.867Z,2.27
2022-08-11T10:18:15.992Z,5.27
2022-08-11T10:20:50.318Z,2.80
2022-08-11T10:23:36.430Z,1.87
2022-08-11T10:26:48.710Z,3.07
2022-08-11T10:29:37.441Z,3.37
2022-08-11T10:32:31.635Z,2.73
2022-08-11T10:35:01.874Z,4.03
2022-08-11T10:38:06.492Z,2.47
2022-08-11T10:40:24.047Z,4.30
2022-08-11T10:43:06.013Z,3.93
2022-08-11T10:45:57.016Z,2.40
2022-08-11T10:48:27.193Z,2.00
2022-08-11T10:51:13.894Z,2.07
2022-08-11T10:54:04.989Z,3.10
2022-08-11T10:56:55.184Z,4.63
2022-08-11T10:59:25.433Z,2.53
2022-08-11T11:01:54.429Z,3.53
2022-08-11T11:04:59.047Z,2.37
2022-08-11T11:07:41.525Z,1.93
2022-08-11T11:10:12.025Z,2.40
2022-08-11T11:13:16.770Z,2.80
2022-08-11T11:16:05.810Z,2.20
2022-08-11T11:18:36.752Z,2.00
2022-08-11T11:21:07.559Z,4.30
2022-08-11T11:23:50.293Z,2.13
2022-08-11T11:26:41.266Z,1.60
2022-08-11T11:29:46.794Z,3.40
2022-08-11T11:32:19.032Z,3.30
2022-08-11T11:35:08.466Z,1.57
2022-08-11T11:37:37.262Z,3.43
2022-08-11T11:40:16.480Z,2.70
2022-08-11T11:42:46.267Z,4.33
2022-08-11T11:45:23.419Z,2.13
2022-08-11T11:47:54.015Z,3.03
2022-08-11T11:50:36.535Z,1.70
2022-08-11T11:53:09.199Z,2.27
2022-08-11T11:55:37.524Z,1.87
2022-08-11T11:58:25.451Z,4.53
2022-08-11T12:01:12.566Z,2.37
2022-08-11T12:03:41.283Z,4.07
2022-08-11T12:06:12.161Z,4.17
2022-08-11T12:08:39.587Z,2.97
2022-08-11T12:11:28.466Z,1.83
2022-08-11T12:13:59.324Z,2.43
2022-08-11T12:16:33.091Z,4.97
2022-08-11T12:19:06.177Z,2.20
2022-08-11T12:21:35.434Z,3.53
2022-08-11T12:24:22.091Z,2.90
2022-08-11T12:27:14.677Z,4.00
2022-08-11T12:29:41.394Z,2.07
2022-08-11T12:32:11.522Z,1.60
2022-08-11T12:34:38.409Z,4.63
2022-08-11T12:37:13.279Z,2.77
2022-08-11T12:40:43.130Z,5.07
2022-08-11T12:43:40.615Z,4.50
2022-08-11T12:46:14.306Z,3.23
2022-08-11T12:49:04.280Z,2.93
2022-08-11T12:52:10.997Z,2.77
2022-08-11T12:55:00.070Z,1.57
2022-08-11T12:57:47.601Z,2.70
2022-08-11T13:00:34.266Z,4.07
2022-08-11T13:03:20.217Z,1.53
2022-08-11T13:05:47.959Z,3.17
2022-08-11T13:08:15.694Z,1.67
2022-08-11T13:11:02.661Z,2.57
2022-08-11T13:13:55.648Z,2.40
2022-08-11T13:16:18.075Z,1.43
2022-08-11T13:18:45.430Z,1.90
2022-08-11T13:21:20.060Z,3.33
2022-08-11T13:24:00.734Z,1.70
2022-08-11T13:26:47.426Z,1.77
2022-08-11T13:29:28.208Z,3.10
2022-08-11T13:31:59.748Z,1.83
2022-08-11T13:34:27.986Z,1.70
2022-08-11T13:36:57.143Z,1.60
2022-08-11T13:39:26.928Z,1.60
2022-08-11T13:41:56.766Z,3.10
2022-08-11T13:44:30.267Z,5.23
2022-08-11T13:47:01.812Z,2.30
2022-08-11T13:49:31.470Z,1.60
2022-08-11T13:51:59.789Z,1.53
2022-08-11T13:54:34.490Z,2.00
2022-08-11T13:57:13.655Z,1.93
2022-08-11T14:00:12.208Z,1.53
2022-08-11T14:02:52.448Z,1.50
2022-08-11T14:05:25.738Z,3.47
2022-08-11T14:07:59.169Z,2.93
2022-08-11T14:10:30.217Z,1.30
2022-08-11T14:13:29.233Z,2.50
2022-08-11T14:16:25.078Z,1.33
2022-08-11T14:18:57.625Z,1.70
2022-08-11T14:21:43.771Z,1.90
2022-08-11T14:24:11.749Z,3.00
2022-08-11T14:26:43.448Z,1.47
2022-08-11T14:29:14.143Z,1.47
2022-08-11T14:31:46.019Z,3.77
2022-08-11T14:34:14.700Z,4.53
2022-08-11T14:36:45.772Z,2.13
2022-08-11T14:39:18.327Z,3.33
2022-08-11T14:42:13.751Z,2.47
2022-08-11T14:45:05.827Z,2.47
2022-08-11T14:47:37.695Z,6.63
2022-08-11T14:50:12.072Z,1.47
2022-08-11T14:53:00.804Z,2.70
2022-08-11T14:55:55.928Z,2.23
2022-08-11T14:58:26.189Z,1.90
2022-08-11T15:00:56.247Z,4.00
2022-08-11T15:03:28.203Z,2.37
2022-08-11T15:05:58.565Z,1.20
2022-08-11T15:08:54.802Z,0.87
2022-08-11T15:11:44.003Z,1.27
2022-08-11T15:14:12.269Z,3.73
2022-08-11T15:17:01.610Z,1.83
2022-08-11T15:19:40.506Z,3.03
2022-08-11T15:22:28.179Z,1.10
2022-08-11T15:24:54.999Z,2.53
2022-08-11T15:27:42.674Z,3.07
2022-08-11T15:30:33.045Z,1.60
2022-08-11T15:33:23.476Z,3.23
2022-08-11T15:36:10.966Z,1.63
2022-08-11T15:38:44.689Z,2.80
2022-08-11T15:41:36.197Z,1.63
2022-08-11T15:44:58.915Z,1.83
2022-08-11T15:47:18.714Z,1.47
2022-08-11T15:50:09.855Z,1.73
2022-08-11T15:52:43.669Z,3.13
2022-08-11T15:55:11.224Z,1.97
2022-08-11T15:57:58.087Z,2.63
2022-08-11T16:00:44.449Z,3.20
2022-08-11T16:04:06.347Z,2.03
2022-08-11T16:06:19.878Z,2.20
2022-08-11T16:08:52.615Z,3.80
2022-08-11T16:11:21.569Z,1.93
2022-08-11T16:14:08.356Z,8.43
2022-08-11T16:16:36.505Z,2.33
2022-08-11T16:19:04.873Z,1.73
2022-08-11T16:21:37.188Z,1.83
2022-08-11T16:24:07.811Z,1.13
2022-08-11T16:27:11.775Z,1.63
2022-08-11T16:29:26.119Z,4.77
2022-08-11T16:32:14.745Z,2.43
2022-08-11T16:35:03.098Z,5.00
2022-08-11T16:37:52.061Z,2.33
2022-08-11T16:40:22.764Z,4.00
2022-08-11T16:43:11.686Z,4.07
2022-08-11T16:45:58.800Z,5.13
2022-08-11T16:48:35.310Z,2.70
2022-08-11T16:51:05.011Z,3.13
2022-08-11T16:53:48.991Z,1.60
2022-08-11T16:56:45.343Z,3.37
2022-08-11T16:59:19.885Z,1.60
2022-08-11T17:01:47.198Z,4.60
2022-08-11T17:04:48.889Z,3.43
2022-08-11T17:07:51.387Z,3.20
2022-08-11T17:10:56.459Z,1.50
2022-08-11T17:13:35.147Z,2.23
2022-08-11T17:16:07.206Z,2.03
2022-08-11T17:18:43.140Z,7.13
2022-08-11T17:21:20.922Z,3.50
2022-08-11T17:23:52.082Z,3.83
2022-08-11T17:26:55.686Z,2.47
2022-08-11T17:29:53.668Z,1.60
2022-08-11T17:32:55.938Z,5.93
2022-08-11T17:35:33.236Z,2.23
2022-08-11T17:38:07.588Z,1.30
2022-08-11T17:40:38.881Z,1.60
2022-08-11T17:43:28.467Z,1.73
2022-08-11T17:46:15.167Z,3.10
2022-08-11T17:48:47.846Z,5.17
2022-08-11T17:51:38.695Z,1.73
2022-08-11T17:54:25.996Z,4.50
2022-08-11T17:57:21.291Z,4.73
2022-08-11T17:59:52.849Z,2.57
2022-08-11T18:02:44.907Z,1.83
2022-08-11T18:05:13.739Z,4.40
2022-08-11T18:08:04.297Z,4.63
2022-08-11T18:10:51.351Z,5.77
2022-08-11T18:13:40.285Z,2.67
2022-08-11T18:16:26.478Z,2.50
2022-08-11T18:19:14.008Z,4.67
2022-08-11T18:22:14.498Z,4.87
2022-08-11T18:25:10.431Z,3.20
2022-08-11T18:27:59.207Z,3.83
2022-08-11T18:30:45.572Z,1.30
2022-08-11T18:33:56.640Z,4.47
2022-08-11T18:36:42.922Z,3.57
2022-08-11T18:39:31.673Z,2.70
2022-08-11T18:42:29.562Z,3.53
2022-08-11T18:45:20.288Z,3.13
2022-08-11T18:48:11.638Z,4.50
2022-08-11T18:51:29.814Z,2.23
2022-08-11T18:54:11.230Z,4.40
2022-08-11T18:56:57.874Z,2.93
2022-08-11T18:59:46.509Z,2.00
2022-08-11T19:02:48.652Z,1.47
2022-08-11T19:06:31.816Z,3.80
2022-08-11T19:08:56.355Z,4.40
2022-08-11T19:11:44.419Z,2.93
2022-08-11T19:14:32.293Z,1.73
2022-08-11T19:17:44.526Z,2.33
2022-08-11T19:20:31.925Z,1.93
2022-08-11T19:23:18.466Z,2.30
2022-08-11T19:26:05.940Z,1.50
2022-08-11T19:28:53.710Z,3.13
2022-08-11T19:31:44.419Z,2.60
2022-08-11T19:34:35.924Z,1.40
2022-08-11T19:37:25.316Z,1.70
2022-08-11T19:40:21.134Z,2.40
2022-08-11T19:43:11.171Z,4.57
2022-08-11T19:46:09.664Z,1.70
2022-08-11T19:48:56.561Z,1.40
2022-08-11T19:51:46.410Z,3.00
2022-08-11T19:54:33.662Z,1.80
2022-08-11T19:57:21.629Z,1.70
2022-08-11T20:00:08.128Z,2.13
2022-08-11T20:02:53.968Z,4.17
2022-08-11T20:05:39.574Z,2.97
2022-08-11T20:08:42.229Z,3.27
2022-08-11T20:11:29.398Z,4.77
2022-08-11T20:14:15.454Z,3.43
2022-08-11T20:17:01.741Z,2.40
2022-08-11T20:19:54.773Z,4.33
2022-08-11T20:22:45.317Z,2.47
2022-08-11T20:25:31.619Z,5.63
2022-08-11T20:28:16.686Z,1.80
2022-08-11T20:31:04.629Z,4.97
2022-08-11T20:33:52.043Z,3.20
2022-08-11T20:36:37.013Z,9.40
2022-08-11T20:39:24.571Z,4.77
2022-08-11T20:42:12.270Z,3.87
2022-08-11T20:44:59.686Z,4.83
2022-08-11T20:47:59.206Z,4.03
2022-08-11T20:50:47.039Z,1.67
2022-08-11T20:53:35.906Z,3.30
2022-08-11T20:56:28.195Z,1.93
2022-08-11T20:59:18.119Z,2.40
2022-08-11T21:02:09.837Z,2.00
2022-08-11T21:04:55.903Z,2.20
2022-08-11T21:07:44.286Z,4.23
2022-08-11T21:10:44.760Z,4.07
2022-08-11T21:13:33.476Z,6.17
2022-08-11T21:16:26.606Z,4.13
2022-08-11T21:19:55.162Z,2.90
2022-08-11T21:22:31.993Z,2.73
2022-08-11T21:25:18.869Z,2.50
2022-08-11T21:28:08.430Z,3.57
2022-08-11T21:30:57.754Z,1.70
2022-08-11T21:33:46.920Z,3.43
2022-08-11T21:36:33.534Z,2.67
2022-08-11T21:39:25.151Z,2.33
2022-08-11T21:42:13.480Z,1.83
2022-08-11T21:45:01.592Z,2.90
2022-08-11T21:47:48.550Z,4.53
2022-08-11T21:50:34.031Z,3.67
2022-08-11T21:53:19.932Z,1.80
2022-08-11T21:56:06.717Z,3.83
2022-08-11T21:58:52.999Z,3.67
2022-08-11T22:01:39.838Z,5.50
2022-08-11T22:04:26.084Z,5.27
2022-08-11T22:07:12.077Z,3.80
2022-08-11T22:09:57.647Z,3.53
2022-08-11T22:12:45.267Z,3.30
2022-08-11T22:15:31.569Z,4.27
2022-08-11T22:18:17.039Z,2.10
2022-08-11T22:21:03.600Z,1.93
2022-08-11T22:23:51.856Z,2.17
2022-08-11T22:26:39.631Z,3.27
2022-08-11T22:29:38.014Z,1.90
2022-08-11T22:32:33.482Z,4.57
2022-08-11T22:35:20.911Z,4.17
2022-08-11T22:38:07.502Z,2.87
2022-08-11T22:40:55.374Z,2.57
2022-08-11T22:43:40.809Z,3.97
2022-08-11T22:46:26.727Z,2.90
2022-08-11T22:49:12.663Z,4.33
2022-08-11T22:52:01.104Z,6.00
2022-08-11T22:54:47.198Z,3.23
2022-08-11T22:57:33.662Z,4.83
2022-08-11T23:00:20.112Z,5.23
2022-08-11T23:03:06.212Z,4.90
2022-08-11T23:05:56.517Z,3.00
2022-08-11T23:08:42.621Z,6.70
2022-08-11T23:11:27.613Z,3.53
2022-08-11T23:14:33.445Z,2.30
2022-08-11T23:17:19.122Z,2.90
2022-08-11T23:20:16.722Z,2.87
2022-08-11T23:23:10.907Z,5.77
2022-08-11T23:25:58.211Z,3.17
2022-08-11T23:28:45.642Z,4.30
2022-08-11T23:31:50.537Z,3.33
2022-08-11T23:35:03.769Z,3.30
2022-08-11T23:37:50.630Z,5.63
2022-08-11T23:40:35.599Z,4.57
2022-08-11T23:43:21.490Z,4.47
2022-08-11T23:46:06.739Z,4.00
2022-08-11T23:48:52.562Z,4.87
2022-08-11T23:51:40.997Z,3.47
2022-08-11T23:54:28.312Z,4.43
2022-08-11T23:57:13.814Z,4.63
2022-08-11T23:59:58.897Z,3.00
